Hauptseite
METAR-TAF:

METAR-TAF

Flughäfen :

Tebessa, Algerien

Breite: 35-29N, Länge: 008-08E, Höhe: 813 m

Beobachtung

Neuester Wetterbericht von vor 39 Minuten, um 16:00 UTC
Wind 7 kt aus West/Nordwest
Temperatur 21°C
Luftfeuchtigkeit 10%
Luftdruck 1017 hPa
Sichtweite 10 km oder mehr
keine Wolken unter 1500 m und keine Kumulonimbus oder Gewitterwolken

METAR: DABS 251600Z 30007KT CAVOK 21/M12 Q1017

Zeit: 17:39 (16:39 UTC)

Prognose

Neuester Wetterbericht von vor 5 Stunden und 39 Minuten, um 11:00 UTC
Gültige Prognose vom 25 um 12 UTC bis 26 um 12 UTC
Wind 12 kt aus West/Nordwest
Sichtweite 10 km oder mehr
keine Wolken unter 1500 m und keine Kumulonimbus oder Gewitterwolken
Übergehend zu
vom 25 um 18 UTC bis 25 um 20 UTC
Wind 8 kt aus Nord/Nordost
Übergehend zu
vom 26 um 08 UTC bis 26 um 10 UTC
Wind 14 kt aus West/Nordwest

TAF: DABS 251100Z 2512/2612 29012KT CAVOK BECMG 2518/2520 02008KT BECMG 2608/2610 30014KT

Wetterbeobachtungen und Prognosen von mehr als 4000 Flughäfen (METAR und TAF Bericht).

Die verfügbaren Stationen werden durch gelbe und rote Markierungen auf der Karte dargestellt.

Führen Sie die Maus auf sie, um den Namen der Station zu sehen.

Darauf klicken, um die Beobachtung von Wetterbeobachtungen und Prognosen zu sehen.

Um die Karte zu ändern : klicken Sie auf den grünen Tasten mit einem schwarzen Kreuz Zum Vergrößern, auf den grünen Button mit einem Gedankenstrich zu verkleinern, oder auf die grünen Pfeile für benachbarte Karten.


METAR-TAF: